sensor_id;sensor_type;location;lat;lon;timestamp;P1;durP1;ratioP1;P2;durP2;ratioP2
14040;SDS011;7095;51.388;6.196;2023-04-07T00:00:01;109.33;;;48.20;;
14040;SDS011;7095;51.388;6.196;2023-04-07T00:02:37;108.40;;;46.60;;
14040;SDS011;7095;51.388;6.196;2023-04-07T00:05:10;103.43;;;46.67;;
14040;SDS011;7095;51.388;6.196;2023-04-07T00:07:39;114.93;;;50.13;;
14040;SDS011;7095;51.388;6.196;2023-04-07T00:10:21;121.53;;;49.67;;
14040;SDS011;7095;51.388;6.196;2023-04-07T00:12:50;120.43;;;49.83;;
14040;SDS011;7095;51.388;6.196;2023-04-07T00:15:21;117.83;;;46.80;;
14040;SDS011;7095;51.388;6.196;2023-04-07T00:17:49;109.80;;;46.70;;
14040;SDS011;7095;51.388;6.196;2023-04-07T00:20:18;100.47;;;45.07;;
14040;SDS011;7095;51.388;6.196;2023-04-07T00:22:46;105.97;;;44.73;;
14040;SDS011;7095;51.388;6.196;2023-04-07T00:25:15;116.43;;;44.57;;
14040;SDS011;7095;51.388;6.196;2023-04-07T00:27:44;112.77;;;43.60;;
14040;SDS011;7095;51.388;6.196;2023-04-07T00:30:12;115.90;;;44.27;;
14040;SDS011;7095;51.388;6.196;2023-04-07T00:32:43;110.87;;;43.97;;
14040;SDS011;7095;51.388;6.196;2023-04-07T00:35:12;104.40;;;43.53;;
14040;SDS011;7095;51.388;6.196;2023-04-07T00:37:40;101.13;;;42.37;;
14040;SDS011;7095;51.388;6.196;2023-04-07T00:40:09;103.47;;;42.73;;
14040;SDS011;7095;51.388;6.196;2023-04-07T00:42:39;112.23;;;44.20;;
14040;SDS011;7095;51.388;6.196;2023-04-07T00:45:08;102.97;;;42.27;;
14040;SDS011;7095;51.388;6.196;2023-04-07T00:47:38;94.77;;;39.07;;
14040;SDS011;7095;51.388;6.196;2023-04-07T00:50:09;109.07;;;41.20;;
14040;SDS011;7095;51.388;6.196;2023-04-07T00:52:38;112.13;;;42.03;;
14040;SDS011;7095;51.388;6.196;2023-04-07T00:55:07;122.17;;;42.27;;
14040;SDS011;7095;51.388;6.196;2023-04-07T00:57:36;119.80;;;41.20;;
14040;SDS011;7095;51.388;6.196;2023-04-07T01:00:06;111.80;;;41.73;;
14040;SDS011;7095;51.388;6.196;2023-04-07T01:02:36;111.90;;;42.73;;
14040;SDS011;7095;51.388;6.196;2023-04-07T01:05:14;106.60;;;41.97;;
14040;SDS011;7095;51.388;6.196;2023-04-07T01:07:51;114.87;;;44.43;;
14040;SDS011;7095;51.388;6.196;2023-04-07T01:10:35;108.90;;;41.87;;
14040;SDS011;7095;51.388;6.196;2023-04-07T01:13:15;112.10;;;42.10;;
14040;SDS011;7095;51.388;6.196;2023-04-07T01:15:56;101.77;;;41.67;;
14040;SDS011;7095;51.388;6.196;2023-04-07T01:18:31;105.30;;;40.97;;
14040;SDS011;7095;51.388;6.196;2023-04-07T01:21:03;93.10;;;41.23;;
14040;SDS011;7095;51.388;6.196;2023-04-07T01:26:36;106.50;;;43.57;;
14040;SDS011;7095;51.388;6.196;2023-04-07T01:32:13;98.10;;;38.83;;
14040;SDS011;7095;51.388;6.196;2023-04-07T01:34:46;78.97;;;34.77;;
14040;SDS011;7095;51.388;6.196;2023-04-07T01:37:16;62.80;;;30.27;;
14040;SDS011;7095;51.388;6.196;2023-04-07T01:39:46;71.03;;;31.50;;
14040;SDS011;7095;51.388;6.196;2023-04-07T01:42:15;72.10;;;31.00;;
14040;SDS011;7095;51.388;6.196;2023-04-07T01:44:46;59.37;;;27.93;;
14040;SDS011;7095;51.388;6.196;2023-04-07T01:47:15;56.83;;;25.80;;
14040;SDS011;7095;51.388;6.196;2023-04-07T01:49:45;44.53;;;23.43;;
14040;SDS011;7095;51.388;6.196;2023-04-07T01:52:15;51.53;;;24.93;;
14040;SDS011;7095;51.388;6.196;2023-04-07T01:54:44;52.10;;;25.03;;
14040;SDS011;7095;51.388;6.196;2023-04-07T01:57:13;47.77;;;24.63;;
14040;SDS011;7095;51.388;6.196;2023-04-07T01:59:42;46.93;;;24.73;;
14040;SDS011;7095;51.388;6.196;2023-04-07T02:02:12;50.10;;;25.83;;
14040;SDS011;7095;51.388;6.196;2023-04-07T02:04:43;50.40;;;25.67;;
14040;SDS011;7095;51.388;6.196;2023-04-07T02:07:18;46.13;;;25.30;;
14040;SDS011;7095;51.388;6.196;2023-04-07T02:09:50;48.63;;;24.60;;
14040;SDS011;7095;51.388;6.196;2023-04-07T02:12:22;45.67;;;24.47;;
14040;SDS011;7095;51.388;6.196;2023-04-07T02:15:06;48.53;;;24.17;;
14040;SDS011;7095;51.388;6.196;2023-04-07T02:17:43;45.20;;;23.00;;
14040;SDS011;7095;51.388;6.196;2023-04-07T02:20:14;47.73;;;23.97;;
14040;SDS011;7095;51.388;6.196;2023-04-07T02:22:44;44.03;;;22.80;;
14040;SDS011;7095;51.388;6.196;2023-04-07T02:25:20;42.33;;;23.83;;
14040;SDS011;7095;51.388;6.196;2023-04-07T02:27:51;41.00;;;23.13;;
14040;SDS011;7095;51.388;6.196;2023-04-07T02:30:21;49.90;;;25.13;;
14040;SDS011;7095;51.388;6.196;2023-04-07T02:32:51;45.23;;;24.13;;
14040;SDS011;7095;51.388;6.196;2023-04-07T02:35:21;51.20;;;26.47;;
14040;SDS011;7095;51.388;6.196;2023-04-07T02:37:50;42.93;;;25.97;;
14040;SDS011;7095;51.388;6.196;2023-04-07T02:40:18;43.00;;;25.17;;
14040;SDS011;7095;51.388;6.196;2023-04-07T02:42:47;48.20;;;26.77;;
14040;SDS011;7095;51.388;6.196;2023-04-07T02:45:15;46.10;;;25.63;;
14040;SDS011;7095;51.388;6.196;2023-04-07T02:47:44;49.07;;;24.63;;
14040;SDS011;7095;51.388;6.196;2023-04-07T02:50:14;41.47;;;24.50;;
14040;SDS011;7095;51.388;6.196;2023-04-07T02:52:42;37.87;;;22.07;;
14040;SDS011;7095;51.388;6.196;2023-04-07T02:55:13;34.07;;;21.87;;
14040;SDS011;7095;51.388;6.196;2023-04-07T02:57:42;37.63;;;19.33;;
14040;SDS011;7095;51.388;6.196;2023-04-07T03:00:33;33.20;;;19.77;;
14040;SDS011;7095;51.388;6.196;2023-04-07T03:03:18;30.97;;;19.00;;
14040;SDS011;7095;51.388;6.196;2023-04-07T03:06:08;29.97;;;18.20;;
14040;SDS011;7095;51.388;6.196;2023-04-07T03:08:47;31.40;;;18.20;;
14040;SDS011;7095;51.388;6.196;2023-04-07T03:11:16;25.33;;;16.97;;
14040;SDS011;7095;51.388;6.196;2023-04-07T03:13:44;26.23;;;16.97;;
14040;SDS011;7095;51.388;6.196;2023-04-07T03:16:14;32.77;;;17.30;;
14040;SDS011;7095;51.388;6.196;2023-04-07T03:18:56;27.40;;;16.67;;
14040;SDS011;7095;51.388;6.196;2023-04-07T03:21:27;23.57;;;15.07;;
14040;SDS011;7095;51.388;6.196;2023-04-07T03:23:57;26.43;;;14.80;;
14040;SDS011;7095;51.388;6.196;2023-04-07T03:26:26;29.07;;;14.87;;
14040;SDS011;7095;51.388;6.196;2023-04-07T03:28:55;25.23;;;13.50;;
14040;SDS011;7095;51.388;6.196;2023-04-07T03:31:24;28.20;;;13.83;;
14040;SDS011;7095;51.388;6.196;2023-04-07T03:33:53;23.30;;;14.33;;
14040;SDS011;7095;51.388;6.196;2023-04-07T03:36:22;26.70;;;13.60;;
14040;SDS011;7095;51.388;6.196;2023-04-07T03:38:53;24.87;;;14.77;;
14040;SDS011;7095;51.388;6.196;2023-04-07T03:41:22;23.97;;;13.87;;
14040;SDS011;7095;51.388;6.196;2023-04-07T03:43:50;23.77;;;12.77;;
14040;SDS011;7095;51.388;6.196;2023-04-07T03:46:19;21.70;;;13.57;;
14040;SDS011;7095;51.388;6.196;2023-04-07T03:48:48;22.37;;;12.53;;
14040;SDS011;7095;51.388;6.196;2023-04-07T03:51:19;18.93;;;12.67;;
14040;SDS011;7095;51.388;6.196;2023-04-07T03:53:53;18.50;;;12.63;;
14040;SDS011;7095;51.388;6.196;2023-04-07T03:56:42;17.87;;;11.33;;
14040;SDS011;7095;51.388;6.196;2023-04-07T03:59:13;18.37;;;11.40;;
14040;SDS011;7095;51.388;6.196;2023-04-07T04:01:51;21.07;;;12.20;;
14040;SDS011;7095;51.388;6.196;2023-04-07T04:04:19;24.70;;;12.20;;
14040;SDS011;7095;51.388;6.196;2023-04-07T04:06:51;25.43;;;12.07;;
14040;SDS011;7095;51.388;6.196;2023-04-07T04:09:28;18.90;;;11.17;;
14040;SDS011;7095;51.388;6.196;2023-04-07T04:11:57;18.70;;;10.93;;
14040;SDS011;7095;51.388;6.196;2023-04-07T04:14:28;19.20;;;11.33;;
14040;SDS011;7095;51.388;6.196;2023-04-07T04:17:00;15.97;;;11.97;;
14040;SDS011;7095;51.388;6.196;2023-04-07T04:19:36;19.90;;;11.53;;
14040;SDS011;7095;51.388;6.196;2023-04-07T04:22:13;22.00;;;11.80;;
14040;SDS011;7095;51.388;6.196;2023-04-07T04:24:50;23.43;;;12.17;;
14040;SDS011;7095;51.388;6.196;2023-04-07T04:27:20;23.30;;;13.00;;
14040;SDS011;7095;51.388;6.196;2023-04-07T04:29:53;20.40;;;11.77;;
14040;SDS011;7095;51.388;6.196;2023-04-07T04:32:32;23.33;;;12.43;;
14040;SDS011;7095;51.388;6.196;2023-04-07T04:35:01;20.37;;;12.87;;
14040;SDS011;7095;51.388;6.196;2023-04-07T04:37:33;23.03;;;12.47;;
14040;SDS011;7095;51.388;6.196;2023-04-07T04:40:08;20.87;;;12.50;;
14040;SDS011;7095;51.388;6.196;2023-04-07T04:42:39;24.23;;;12.13;;
14040;SDS011;7095;51.388;6.196;2023-04-07T04:45:10;22.63;;;12.27;;
14040;SDS011;7095;51.388;6.196;2023-04-07T04:47:43;22.33;;;12.93;;
14040;SDS011;7095;51.388;6.196;2023-04-07T04:50:12;20.17;;;12.43;;
14040;SDS011;7095;51.388;6.196;2023-04-07T04:52:43;18.77;;;12.53;;
14040;SDS011;7095;51.388;6.196;2023-04-07T04:55:19;20.97;;;12.37;;
14040;SDS011;7095;51.388;6.196;2023-04-07T04:57:48;23.80;;;12.53;;
14040;SDS011;7095;51.388;6.196;2023-04-07T05:00:23;26.43;;;13.53;;
14040;SDS011;7095;51.388;6.196;2023-04-07T05:02:57;25.00;;;13.73;;
14040;SDS011;7095;51.388;6.196;2023-04-07T05:05:26;26.57;;;13.03;;
14040;SDS011;7095;51.388;6.196;2023-04-07T05:07:55;22.63;;;12.43;;
14040;SDS011;7095;51.388;6.196;2023-04-07T05:10:30;30.40;;;12.60;;
14040;SDS011;7095;51.388;6.196;2023-04-07T05:12:58;22.27;;;13.60;;
14040;SDS011;7095;51.388;6.196;2023-04-07T05:15:27;21.97;;;13.50;;
14040;SDS011;7095;51.388;6.196;2023-04-07T05:17:55;22.50;;;13.57;;
14040;SDS011;7095;51.388;6.196;2023-04-07T05:20:26;26.77;;;14.50;;
14040;SDS011;7095;51.388;6.196;2023-04-07T05:22:55;26.27;;;14.37;;
14040;SDS011;7095;51.388;6.196;2023-04-07T05:25:31;30.97;;;15.67;;
14040;SDS011;7095;51.388;6.196;2023-04-07T05:28:03;24.77;;;14.93;;
14040;SDS011;7095;51.388;6.196;2023-04-07T05:30:31;30.80;;;14.87;;
14040;SDS011;7095;51.388;6.196;2023-04-07T05:33:00;31.83;;;14.53;;
14040;SDS011;7095;51.388;6.196;2023-04-07T05:35:40;32.30;;;15.17;;
14040;SDS011;7095;51.388;6.196;2023-04-07T05:38:11;25.97;;;14.17;;
14040;SDS011;7095;51.388;6.196;2023-04-07T05:40:42;25.23;;;14.60;;
14040;SDS011;7095;51.388;6.196;2023-04-07T05:43:16;26.13;;;15.23;;
14040;SDS011;7095;51.388;6.196;2023-04-07T05:45:46;30.90;;;14.10;;
14040;SDS011;7095;51.388;6.196;2023-04-07T05:48:14;26.20;;;13.93;;
14040;SDS011;7095;51.388;6.196;2023-04-07T05:50:45;29.20;;;14.70;;
14040;SDS011;7095;51.388;6.196;2023-04-07T05:53:16;28.30;;;15.47;;
14040;SDS011;7095;51.388;6.196;2023-04-07T05:55:47;28.43;;;14.07;;
14040;SDS011;7095;51.388;6.196;2023-04-07T05:58:28;30.10;;;13.63;;
14040;SDS011;7095;51.388;6.196;2023-04-07T06:00:57;35.27;;;14.30;;
14040;SDS011;7095;51.388;6.196;2023-04-07T06:03:26;27.70;;;12.70;;
14040;SDS011;7095;51.388;6.196;2023-04-07T06:06:06;27.37;;;14.37;;
14040;SDS011;7095;51.388;6.196;2023-04-07T06:08:35;32.70;;;14.53;;
14040;SDS011;7095;51.388;6.196;2023-04-07T06:11:06;26.27;;;13.57;;
14040;SDS011;7095;51.388;6.196;2023-04-07T06:13:34;24.90;;;13.70;;
14040;SDS011;7095;51.388;6.196;2023-04-07T06:16:03;25.13;;;14.23;;
14040;SDS011;7095;51.388;6.196;2023-04-07T06:18:32;24.70;;;13.30;;
14040;SDS011;7095;51.388;6.196;2023-04-07T06:21:00;35.80;;;14.03;;
14040;SDS011;7095;51.388;6.196;2023-04-07T06:23:29;25.80;;;13.30;;
14040;SDS011;7095;51.388;6.196;2023-04-07T06:25:57;24.47;;;13.67;;
14040;SDS011;7095;51.388;6.196;2023-04-07T06:28:29;23.53;;;13.00;;
14040;SDS011;7095;51.388;6.196;2023-04-07T06:30:58;22.97;;;13.17;;
14040;SDS011;7095;51.388;6.196;2023-04-07T06:33:27;24.90;;;13.70;;
14040;SDS011;7095;51.388;6.196;2023-04-07T06:35:55;27.47;;;13.60;;
14040;SDS011;7095;51.388;6.196;2023-04-07T06:38:24;26.23;;;13.37;;
14040;SDS011;7095;51.388;6.196;2023-04-07T06:40:53;24.43;;;13.13;;
14040;SDS011;7095;51.388;6.196;2023-04-07T06:43:21;33.60;;;14.10;;
14040;SDS011;7095;51.388;6.196;2023-04-07T06:45:57;28.70;;;14.30;;
14040;SDS011;7095;51.388;6.196;2023-04-07T06:48:26;25.03;;;13.30;;
14040;SDS011;7095;51.388;6.196;2023-04-07T06:50:55;23.77;;;13.97;;
14040;SDS011;7095;51.388;6.196;2023-04-07T06:53:23;28.73;;;14.30;;
14040;SDS011;7095;51.388;6.196;2023-04-07T06:56:01;26.97;;;13.93;;
14040;SDS011;7095;51.388;6.196;2023-04-07T06:58:30;28.30;;;15.03;;
14040;SDS011;7095;51.388;6.196;2023-04-07T07:01:00;36.53;;;15.80;;
14040;SDS011;7095;51.388;6.196;2023-04-07T07:03:29;32.03;;;15.07;;
14040;SDS011;7095;51.388;6.196;2023-04-07T07:05:59;33.57;;;15.63;;
14040;SDS011;7095;51.388;6.196;2023-04-07T07:08:28;33.00;;;16.20;;
14040;SDS011;7095;51.388;6.196;2023-04-07T07:10:56;33.90;;;16.07;;
14040;SDS011;7095;51.388;6.196;2023-04-07T07:13:25;31.63;;;17.60;;
14040;SDS011;7095;51.388;6.196;2023-04-07T07:15:55;34.20;;;16.63;;
14040;SDS011;7095;51.388;6.196;2023-04-07T07:18:25;43.57;;;18.63;;
14040;SDS011;7095;51.388;6.196;2023-04-07T07:20:57;42.27;;;17.43;;
14040;SDS011;7095;51.388;6.196;2023-04-07T07:23:27;37.20;;;16.73;;
14040;SDS011;7095;51.388;6.196;2023-04-07T07:25:56;38.23;;;16.30;;
14040;SDS011;7095;51.388;6.196;2023-04-07T07:28:25;30.20;;;16.70;;
14040;SDS011;7095;51.388;6.196;2023-04-07T07:30:55;44.53;;;17.53;;
14040;SDS011;7095;51.388;6.196;2023-04-07T07:33:23;30.13;;;16.23;;
14040;SDS011;7095;51.388;6.196;2023-04-07T07:35:53;32.20;;;17.33;;
14040;SDS011;7095;51.388;6.196;2023-04-07T07:38:22;31.33;;;15.80;;
14040;SDS011;7095;51.388;6.196;2023-04-07T07:40:50;30.27;;;15.37;;
14040;SDS011;7095;51.388;6.196;2023-04-07T07:43:19;29.47;;;16.03;;
14040;SDS011;7095;51.388;6.196;2023-04-07T07:45:47;40.43;;;16.00;;
14040;SDS011;7095;51.388;6.196;2023-04-07T07:48:16;30.47;;;15.17;;
14040;SDS011;7095;51.388;6.196;2023-04-07T07:50:44;31.80;;;15.57;;
14040;SDS011;7095;51.388;6.196;2023-04-07T07:53:16;36.83;;;16.20;;
14040;SDS011;7095;51.388;6.196;2023-04-07T07:55:45;26.77;;;15.60;;
14040;SDS011;7095;51.388;6.196;2023-04-07T07:58:14;28.83;;;15.90;;
14040;SDS011;7095;51.388;6.196;2023-04-07T08:00:42;31.27;;;17.20;;
14040;SDS011;7095;51.388;6.196;2023-04-07T08:03:11;33.70;;;16.50;;
14040;SDS011;7095;51.388;6.196;2023-04-07T08:05:39;24.70;;;15.43;;
14040;SDS011;7095;51.388;6.196;2023-04-07T08:08:08;28.30;;;15.33;;
14040;SDS011;7095;51.388;6.196;2023-04-07T08:10:38;26.90;;;15.80;;
14040;SDS011;7095;51.388;6.196;2023-04-07T08:13:06;29.37;;;16.77;;
14040;SDS011;7095;51.388;6.196;2023-04-07T08:15:35;26.03;;;16.00;;
14040;SDS011;7095;51.388;6.196;2023-04-07T08:18:03;30.60;;;16.20;;
14040;SDS011;7095;51.388;6.196;2023-04-07T08:20:33;31.60;;;16.83;;
14040;SDS011;7095;51.388;6.196;2023-04-07T08:23:02;40.50;;;17.70;;
14040;SDS011;7095;51.388;6.196;2023-04-07T08:25:30;29.43;;;16.13;;
14040;SDS011;7095;51.388;6.196;2023-04-07T08:28:00;30.40;;;16.60;;
14040;SDS011;7095;51.388;6.196;2023-04-07T08:30:29;26.37;;;14.87;;
14040;SDS011;7095;51.388;6.196;2023-04-07T08:32:57;24.80;;;15.43;;
14040;SDS011;7095;51.388;6.196;2023-04-07T08:35:26;33.10;;;15.00;;
14040;SDS011;7095;51.388;6.196;2023-04-07T08:37:55;29.60;;;16.30;;
14040;SDS011;7095;51.388;6.196;2023-04-07T08:40:23;28.73;;;15.37;;
14040;SDS011;7095;51.388;6.196;2023-04-07T08:42:52;30.80;;;15.80;;
14040;SDS011;7095;51.388;6.196;2023-04-07T08:45:22;30.87;;;15.40;;
14040;SDS011;7095;51.388;6.196;2023-04-07T08:47:54;27.27;;;16.00;;
14040;SDS011;7095;51.388;6.196;2023-04-07T08:50:25;37.63;;;16.63;;
14040;SDS011;7095;51.388;6.196;2023-04-07T08:52:54;29.67;;;18.27;;
14040;SDS011;7095;51.388;6.196;2023-04-07T08:55:24;29.03;;;17.57;;
14040;SDS011;7095;51.388;6.196;2023-04-07T08:57:52;33.57;;;17.53;;
14040;SDS011;7095;51.388;6.196;2023-04-07T09:00:23;29.23;;;16.73;;
14040;SDS011;7095;51.388;6.196;2023-04-07T09:02:52;28.80;;;16.97;;
14040;SDS011;7095;51.388;6.196;2023-04-07T09:05:21;27.40;;;17.60;;
14040;SDS011;7095;51.388;6.196;2023-04-07T09:07:51;29.77;;;16.80;;
14040;SDS011;7095;51.388;6.196;2023-04-07T09:10:19;25.20;;;15.43;;
14040;SDS011;7095;51.388;6.196;2023-04-07T09:12:48;20.57;;;14.77;;
14040;SDS011;7095;51.388;6.196;2023-04-07T09:15:17;20.07;;;14.77;;
14040;SDS011;7095;51.388;6.196;2023-04-07T09:17:47;26.47;;;15.63;;
14040;SDS011;7095;51.388;6.196;2023-04-07T09:20:16;28.40;;;15.43;;
14040;SDS011;7095;51.388;6.196;2023-04-07T09:22:45;21.67;;;15.00;;
14040;SDS011;7095;51.388;6.196;2023-04-07T09:25:14;26.63;;;15.37;;
14040;SDS011;7095;51.388;6.196;2023-04-07T09:30:31;28.20;;;15.90;;
14040;SDS011;7095;51.388;6.196;2023-04-07T09:33:02;22.47;;;14.73;;
14040;SDS011;7095;51.388;6.196;2023-04-07T09:35:33;22.70;;;15.20;;
14040;SDS011;7095;51.388;6.196;2023-04-07T09:38:19;24.27;;;14.83;;
14040;SDS011;7095;51.388;6.196;2023-04-07T09:40:47;26.00;;;14.33;;
14040;SDS011;7095;51.388;6.196;2023-04-07T09:43:17;22.00;;;13.33;;
14040;SDS011;7095;51.388;6.196;2023-04-07T09:45:46;16.27;;;11.57;;
14040;SDS011;7095;51.388;6.196;2023-04-07T09:48:18;16.33;;;10.40;;
14040;SDS011;7095;51.388;6.196;2023-04-07T09:50:47;12.33;;;9.53;;
14040;SDS011;7095;51.388;6.196;2023-04-07T09:53:17;13.20;;;9.40;;
14040;SDS011;7095;51.388;6.196;2023-04-07T09:55:46;15.67;;;9.93;;
14040;SDS011;7095;51.388;6.196;2023-04-07T09:58:15;14.50;;;8.73;;
14040;SDS011;7095;51.388;6.196;2023-04-07T10:00:44;11.10;;;7.07;;
14040;SDS011;7095;51.388;6.196;2023-04-07T10:03:14;11.07;;;7.47;;
14040;SDS011;7095;51.388;6.196;2023-04-07T10:05:44;11.67;;;7.60;;
14040;SDS011;7095;51.388;6.196;2023-04-07T10:08:14;13.70;;;7.67;;
14040;SDS011;7095;51.388;6.196;2023-04-07T10:10:43;12.07;;;7.80;;
14040;SDS011;7095;51.388;6.196;2023-04-07T10:13:13;14.03;;;7.67;;
14040;SDS011;7095;51.388;6.196;2023-04-07T10:15:42;17.77;;;7.27;;
14040;SDS011;7095;51.388;6.196;2023-04-07T10:18:11;13.47;;;7.97;;
14040;SDS011;7095;51.388;6.196;2023-04-07T10:20:41;13.23;;;7.67;;
14040;SDS011;7095;51.388;6.196;2023-04-07T10:23:14;17.67;;;8.57;;
14040;SDS011;7095;51.388;6.196;2023-04-07T10:25:46;13.00;;;8.50;;
14040;SDS011;7095;51.388;6.196;2023-04-07T10:28:19;12.03;;;8.70;;
14040;SDS011;7095;51.388;6.196;2023-04-07T10:30:50;12.60;;;8.10;;
14040;SDS011;7095;51.388;6.196;2023-04-07T10:36:13;15.43;;;9.10;;
14040;SDS011;7095;51.388;6.196;2023-04-07T10:41:49;13.17;;;8.43;;
14040;SDS011;7095;51.388;6.196;2023-04-07T10:47:16;11.80;;;9.40;;
14040;SDS011;7095;51.388;6.196;2023-04-07T10:52:44;13.43;;;9.40;;
14040;SDS011;7095;51.388;6.196;2023-04-07T10:55:35;15.00;;;9.67;;
14040;SDS011;7095;51.388;6.196;2023-04-07T11:01:16;21.93;;;10.83;;
14040;SDS011;7095;51.388;6.196;2023-04-07T11:03:54;21.47;;;12.30;;
14040;SDS011;7095;51.388;6.196;2023-04-07T11:06:27;15.10;;;11.63;;
14040;SDS011;7095;51.388;6.196;2023-04-07T11:08:56;15.70;;;11.40;;
14040;SDS011;7095;51.388;6.196;2023-04-07T11:11:36;20.87;;;11.43;;
14040;SDS011;7095;51.388;6.196;2023-04-07T11:14:06;21.87;;;10.60;;
14040;SDS011;7095;51.388;6.196;2023-04-07T11:16:36;15.30;;;10.80;;
14040;SDS011;7095;51.388;6.196;2023-04-07T11:19:08;15.00;;;11.70;;
14040;SDS011;7095;51.388;6.196;2023-04-07T11:21:38;15.33;;;9.93;;
14040;SDS011;7095;51.388;6.196;2023-04-07T11:24:06;16.30;;;11.00;;
14040;SDS011;7095;51.388;6.196;2023-04-07T11:26:37;13.67;;;10.53;;
14040;SDS011;7095;51.388;6.196;2023-04-07T11:29:07;16.10;;;10.27;;
14040;SDS011;7095;51.388;6.196;2023-04-07T11:31:37;16.23;;;9.80;;
14040;SDS011;7095;51.388;6.196;2023-04-07T11:34:06;18.13;;;8.60;;
14040;SDS011;7095;51.388;6.196;2023-04-07T11:36:37;14.57;;;9.97;;
14040;SDS011;7095;51.388;6.196;2023-04-07T11:39:16;19.07;;;10.73;;
14040;SDS011;7095;51.388;6.196;2023-04-07T11:41:48;17.83;;;10.37;;
14040;SDS011;7095;51.388;6.196;2023-04-07T11:44:18;18.23;;;12.40;;
14040;SDS011;7095;51.388;6.196;2023-04-07T11:46:52;15.07;;;11.87;;
14040;SDS011;7095;51.388;6.196;2023-04-07T11:49:22;18.87;;;11.40;;
14040;SDS011;7095;51.388;6.196;2023-04-07T11:51:59;19.10;;;12.30;;
14040;SDS011;7095;51.388;6.196;2023-04-07T11:54:37;22.93;;;12.17;;
14040;SDS011;7095;51.388;6.196;2023-04-07T11:57:09;22.33;;;14.33;;
14040;SDS011;7095;51.388;6.196;2023-04-07T11:59:39;21.30;;;13.20;;
14040;SDS011;7095;51.388;6.196;2023-04-07T12:02:08;17.90;;;11.97;;
14040;SDS011;7095;51.388;6.196;2023-04-07T12:04:36;22.77;;;13.03;;
14040;SDS011;7095;51.388;6.196;2023-04-07T12:07:07;20.50;;;13.80;;
14040;SDS011;7095;51.388;6.196;2023-04-07T12:09:36;19.63;;;11.77;;
14040;SDS011;7095;51.388;6.196;2023-04-07T12:12:06;19.10;;;13.07;;
14040;SDS011;7095;51.388;6.196;2023-04-07T12:14:37;17.00;;;11.93;;
14040;SDS011;7095;51.388;6.196;2023-04-07T12:17:06;15.30;;;9.83;;
14040;SDS011;7095;51.388;6.196;2023-04-07T12:19:47;18.47;;;7.43;;
14040;SDS011;7095;51.388;6.196;2023-04-07T12:22:16;16.40;;;7.40;;
14040;SDS011;7095;51.388;6.196;2023-04-07T12:24:44;17.33;;;8.67;;
14040;SDS011;7095;51.388;6.196;2023-04-07T12:27:13;16.53;;;8.23;;
14040;SDS011;7095;51.388;6.196;2023-04-07T12:29:43;16.13;;;8.13;;
14040;SDS011;7095;51.388;6.196;2023-04-07T12:32:11;17.23;;;7.50;;
14040;SDS011;7095;51.388;6.196;2023-04-07T12:34:40;15.70;;;8.73;;
14040;SDS011;7095;51.388;6.196;2023-04-07T12:37:09;17.87;;;7.50;;
14040;SDS011;7095;51.388;6.196;2023-04-07T12:39:38;19.07;;;8.67;;
14040;SDS011;7095;51.388;6.196;2023-04-07T12:42:06;13.00;;;7.13;;
14040;SDS011;7095;51.388;6.196;2023-04-07T12:44:37;11.90;;;7.13;;
14040;SDS011;7095;51.388;6.196;2023-04-07T12:47:07;13.10;;;7.67;;
14040;SDS011;7095;51.388;6.196;2023-04-07T12:49:38;12.87;;;7.57;;
14040;SDS011;7095;51.388;6.196;2023-04-07T12:52:06;13.03;;;6.93;;
14040;SDS011;7095;51.388;6.196;2023-04-07T12:54:35;11.17;;;7.37;;
14040;SDS011;7095;51.388;6.196;2023-04-07T12:57:04;9.73;;;7.40;;
14040;SDS011;7095;51.388;6.196;2023-04-07T12:59:32;12.47;;;7.83;;
14040;SDS011;7095;51.388;6.196;2023-04-07T13:02:01;20.43;;;8.07;;
14040;SDS011;7095;51.388;6.196;2023-04-07T13:04:32;15.33;;;7.67;;
14040;SDS011;7095;51.388;6.196;2023-04-07T13:07:01;14.20;;;7.87;;
14040;SDS011;7095;51.388;6.196;2023-04-07T13:09:35;12.20;;;8.07;;
14040;SDS011;7095;51.388;6.196;2023-04-07T13:12:04;14.43;;;8.27;;
14040;SDS011;7095;51.388;6.196;2023-04-07T13:14:33;15.03;;;8.37;;
14040;SDS011;7095;51.388;6.196;2023-04-07T13:17:07;13.60;;;8.30;;
14040;SDS011;7095;51.388;6.196;2023-04-07T13:19:37;14.13;;;8.23;;
14040;SDS011;7095;51.388;6.196;2023-04-07T13:22:06;15.87;;;7.97;;
14040;SDS011;7095;51.388;6.196;2023-04-07T13:24:35;12.00;;;7.50;;
14040;SDS011;7095;51.388;6.196;2023-04-07T13:27:03;13.50;;;7.40;;
14040;SDS011;7095;51.388;6.196;2023-04-07T13:29:32;14.17;;;6.73;;
14040;SDS011;7095;51.388;6.196;2023-04-07T13:32:04;16.13;;;7.33;;
14040;SDS011;7095;51.388;6.196;2023-04-07T13:34:33;19.00;;;8.33;;
14040;SDS011;7095;51.388;6.196;2023-04-07T13:37:03;15.37;;;7.67;;
14040;SDS011;7095;51.388;6.196;2023-04-07T13:39:32;17.87;;;7.67;;
14040;SDS011;7095;51.388;6.196;2023-04-07T13:42:01;22.90;;;9.13;;
14040;SDS011;7095;51.388;6.196;2023-04-07T13:44:32;18.03;;;8.57;;
14040;SDS011;7095;51.388;6.196;2023-04-07T13:47:03;18.23;;;8.90;;
14040;SDS011;7095;51.388;6.196;2023-04-07T13:49:32;16.60;;;8.33;;
14040;SDS011;7095;51.388;6.196;2023-04-07T13:52:00;18.20;;;8.67;;
14040;SDS011;7095;51.388;6.196;2023-04-07T13:54:30;16.67;;;8.50;;
14040;SDS011;7095;51.388;6.196;2023-04-07T13:56:59;16.87;;;9.83;;
14040;SDS011;7095;51.388;6.196;2023-04-07T13:59:28;21.97;;;9.27;;
14040;SDS011;7095;51.388;6.196;2023-04-07T14:01:59;14.57;;;9.20;;
14040;SDS011;7095;51.388;6.196;2023-04-07T14:04:28;14.27;;;9.03;;
14040;SDS011;7095;51.388;6.196;2023-04-07T14:06:56;13.00;;;8.40;;
14040;SDS011;7095;51.388;6.196;2023-04-07T14:09:25;13.50;;;8.93;;
14040;SDS011;7095;51.388;6.196;2023-04-07T14:11:54;17.80;;;8.53;;
14040;SDS011;7095;51.388;6.196;2023-04-07T14:14:23;16.30;;;8.67;;
14040;SDS011;7095;51.388;6.196;2023-04-07T14:16:52;19.23;;;10.53;;
14040;SDS011;7095;51.388;6.196;2023-04-07T14:19:21;16.20;;;9.60;;
14040;SDS011;7095;51.388;6.196;2023-04-07T14:21:50;17.47;;;9.87;;
14040;SDS011;7095;51.388;6.196;2023-04-07T14:24:18;15.53;;;9.13;;
14040;SDS011;7095;51.388;6.196;2023-04-07T14:26:47;19.87;;;9.70;;
14040;SDS011;7095;51.388;6.196;2023-04-07T14:29:19;13.43;;;9.00;;
14040;SDS011;7095;51.388;6.196;2023-04-07T14:31:48;19.37;;;8.67;;
14040;SDS011;7095;51.388;6.196;2023-04-07T14:34:17;14.13;;;7.00;;
14040;SDS011;7095;51.388;6.196;2023-04-07T14:36:51;15.37;;;8.50;;
14040;SDS011;7095;51.388;6.196;2023-04-07T14:39:21;16.50;;;7.97;;
14040;SDS011;7095;51.388;6.196;2023-04-07T14:41:50;18.77;;;7.77;;
14040;SDS011;7095;51.388;6.196;2023-04-07T14:44:20;17.70;;;8.07;;
14040;SDS011;7095;51.388;6.196;2023-04-07T14:46:49;15.47;;;8.03;;
14040;SDS011;7095;51.388;6.196;2023-04-07T14:49:18;19.97;;;8.20;;
14040;SDS011;7095;51.388;6.196;2023-04-07T14:51:46;16.83;;;8.80;;
14040;SDS011;7095;51.388;6.196;2023-04-07T14:54:15;18.80;;;8.93;;
14040;SDS011;7095;51.388;6.196;2023-04-07T14:56:44;21.50;;;8.50;;
14040;SDS011;7095;51.388;6.196;2023-04-07T14:59:12;12.27;;;7.67;;
14040;SDS011;7095;51.388;6.196;2023-04-07T15:01:42;19.20;;;9.20;;
14040;SDS011;7095;51.388;6.196;2023-04-07T15:04:11;19.20;;;8.57;;
14040;SDS011;7095;51.388;6.196;2023-04-07T15:06:40;15.13;;;8.50;;
14040;SDS011;7095;51.388;6.196;2023-04-07T15:09:12;15.23;;;8.67;;
14040;SDS011;7095;51.388;6.196;2023-04-07T15:11:41;16.70;;;8.30;;
14040;SDS011;7095;51.388;6.196;2023-04-07T15:14:10;19.20;;;8.60;;
14040;SDS011;7095;51.388;6.196;2023-04-07T15:16:38;16.43;;;8.67;;
14040;SDS011;7095;51.388;6.196;2023-04-07T15:19:08;14.33;;;8.87;;
14040;SDS011;7095;51.388;6.196;2023-04-07T15:21:37;16.80;;;8.53;;